Time;durP1;ratioP1;P1;durP2;ratioP2;P2;SDS_P1;SDS_P2;PMS_P1;PMS_P2;Temp;Humidity;BMP_temperature;BMP_pressure;BME280_temperature;BME280_humidity;BME280_pressure;Samples;Min_cycle;Max_cycle;Signal;HPM_P1;HPM_P2
2022/04/18 00:02:08;;;;;;;;;;;;;;;11.34;35.99;100946.69;4980845;28;7863;-74
2022/04/18 00:04:34;;;;;;;;;;;;;;;11.34;36.00;100949.25;4943918;28;6970;-74
2022/04/18 00:07:01;;;;;;;;;;;;;;;11.33;36.36;100950.06;4948879;28;6903;-74
2022/04/18 00:09:30;;;;;;;;;;;;;;;11.28;36.70;100946.34;4980852;28;6868;-74
2022/04/18 00:11:57;;;;;;;;;;;;;;;11.23;36.96;100946.09;4992676;28;6988;-74
2022/04/18 00:14:24;;;;;;;;;;;;;;;11.14;36.37;100953.31;4985983;28;8095;-74
2022/04/18 00:16:50;;;;;;;;;;;;;;;11.04;36.62;100950.22;4985561;28;6796;-74
2022/04/18 00:19:15;;;;;;;;;;;;;;;10.94;37.14;100947.97;4983725;28;6788;-74
2022/04/18 00:21:41;;;;;;;;;;;;;;;10.84;36.88;100954.28;4998571;28;6823;-74
2022/04/18 00:24:08;;;;;;;;;;;;;;;10.75;36.98;100946.94;4988577;28;7966;-74
2022/04/18 00:26:37;;;;;;;;;;;;;;;10.70;37.60;100944.13;4985848;28;6808;-74
2022/04/18 00:29:02;;;;;;;;;;;;;;;10.66;37.38;100939.63;4984227;28;6808;-74
2022/04/18 00:31:28;;;;;;;;;;;;;;;10.65;37.40;100940.44;5002783;28;6859;-74
2022/04/18 00:33:54;;;;;;;;;;;;;;;10.66;37.33;100941.28;5000752;28;6991;-74
2022/04/18 00:36:19;;;;;;;;;;;;;;;10.69;38.04;100939.78;5002169;28;6799;-74
2022/04/18 00:38:45;;;;;;;;;;;;;;;10.72;37.05;100939.09;4985815;28;6791;-74
2022/04/18 00:41:11;;;;;;;;;;;;;;;10.75;37.59;100939.25;4984358;28;7045;-74
2022/04/18 00:43:49;;;;;;;;;;;;;;;10.77;37.74;100937.69;4984059;28;6899;-74
2022/04/18 00:46:18;;;;;;;;;;;;;;;10.76;37.97;100937.56;4982395;28;8358;-74
2022/04/18 00:48:45;;;;;;;;;;;;;;;10.72;38.18;100938.19;4985036;28;6804;-74
2022/04/18 00:51:14;;;;;;;;;;;;;;;10.68;37.59;100939.72;4984859;28;7430;-74
2022/04/18 00:53:43;;;;;;;;;;;;;;;10.66;38.12;100933.59;4984218;28;6895;-74
2022/04/18 00:56:13;;;;;;;;;;;;;;;10.65;37.95;100932.72;4980421;28;6804;-74
2022/04/18 00:58:41;;;;;;;;;;;;;;;10.65;38.08;100930.16;4967820;28;6998;-74
2022/04/18 01:01:09;;;;;;;;;;;;;;;10.67;38.08;100936.25;4961627;28;6987;-74
2022/04/18 01:03:35;;;;;;;;;;;;;;;10.71;37.78;100921.94;4980976;28;6868;-74
2022/04/18 01:06:02;;;;;;;;;;;;;;;10.77;37.80;100931.66;4981748;28;7863;-74
2022/04/18 01:08:29;;;;;;;;;;;;;;;10.82;37.82;100914.84;4968653;28;7263;-74
2022/04/18 01:10:55;;;;;;;;;;;;;;;10.86;37.67;100914.22;4984298;28;7950;-74
2022/04/18 01:13:22;;;;;;;;;;;;;;;10.89;37.54;100910.94;4980966;28;6820;-74
2022/04/18 01:15:52;;;;;;;;;;;;;;;10.88;37.97;100912.59;4981988;28;6905;-74
2022/04/18 01:18:19;;;;;;;;;;;;;;;10.84;37.84;100911.56;4983005;28;6815;-74
2022/04/18 01:20:44;;;;;;;;;;;;;;;10.81;38.07;100913.06;4999416;28;6983;-74
2022/04/18 01:23:10;;;;;;;;;;;;;;;10.75;37.79;100912.75;4984381;28;6812;-74
2022/04/18 01:31:05;;;;;;;;;;;;;;;10.56;38.29;100916.84;4980697;28;6820;-74
2022/04/18 01:33:30;;;;;;;;;;;;;;;10.51;38.67;100918.25;4980152;28;7425;-74
2022/04/18 01:35:56;;;;;;;;;;;;;;;10.43;38.64;100910.13;4984423;28;6871;-74
2022/04/18 01:38:23;;;;;;;;;;;;;;;10.33;39.20;100908.69;4995470;28;6810;-74
2022/04/18 01:40:48;;;;;;;;;;;;;;;10.24;38.58;100914.16;4979566;28;7205;-74
2022/04/18 01:43:14;;;;;;;;;;;;;;;10.14;39.78;100912.78;4982761;28;6776;-74
2022/04/18 01:45:40;;;;;;;;;;;;;;;10.05;39.35;100909.69;4960018;28;7124;-74
2022/04/18 01:48:06;;;;;;;;;;;;;;;9.98;39.87;100910.09;4987894;28;6780;-74
2022/04/18 01:50:31;;;;;;;;;;;;;;;9.90;40.54;100901.97;4982065;28;6776;-74
2022/04/18 01:52:57;;;;;;;;;;;;;;;9.85;40.44;100898.25;4982209;28;6867;-73
2022/04/18 01:55:23;;;;;;;;;;;;;;;9.80;40.22;100903.09;5001092;28;6875;-74
2022/04/18 01:57:48;;;;;;;;;;;;;;;9.77;39.97;100900.38;4979042;28;6776;-74
2022/04/18 02:00:14;;;;;;;;;;;;;;;9.75;40.79;100899.38;5000548;28;6772;-74
2022/04/18 02:02:40;;;;;;;;;;;;;;;9.72;40.47;100894.97;4978655;28;6942;-74
2022/04/18 02:05:09;;;;;;;;;;;;;;;9.71;40.79;100887.19;4995916;28;7168;-74
2022/04/18 02:07:35;;;;;;;;;;;;;;;9.69;41.45;100881.09;4984721;28;6815;-74
2022/04/18 02:10:03;;;;;;;;;;;;;;;9.66;41.15;100878.38;4983253;28;6792;-74
2022/04/18 02:12:31;;;;;;;;;;;;;;;9.62;41.29;100882.44;4977066;28;6900;-74
2022/04/18 02:14:57;;;;;;;;;;;;;;;9.58;41.65;100883.91;4981902;28;6804;-74
2022/04/18 02:17:23;;;;;;;;;;;;;;;9.54;40.92;100881.09;4977570;28;6803;-74
2022/04/18 02:19:48;;;;;;;;;;;;;;;9.51;41.20;100878.31;4965909;28;7363;-74
2022/04/18 02:22:14;;;;;;;;;;;;;;;9.45;40.81;100872.06;4983906;28;7738;-76
2022/04/18 02:24:40;;;;;;;;;;;;;;;9.41;41.54;100867.53;4981161;28;6918;-76
2022/04/18 02:27:09;;;;;;;;;;;;;;;9.37;42.02;100869.84;4977917;28;10068;-76
2022/04/18 02:29:34;;;;;;;;;;;;;;;9.34;41.56;100873.09;4985353;28;6995;-76
2022/04/18 02:34:45;;;;;;;;;;;;;;;9.27;41.75;100876.06;4982250;28;6876;-77
2022/04/18 02:37:11;;;;;;;;;;;;;;;9.24;42.46;100881.88;4964300;28;6796;-75
2022/04/18 02:39:37;;;;;;;;;;;;;;;9.22;41.28;100877.44;4984621;28;7420;-75
2022/04/18 02:42:04;;;;;;;;;;;;;;;9.19;41.06;100883.28;4983223;28;6824;-75
2022/04/18 02:44:29;;;;;;;;;;;;;;;9.16;41.22;100880.50;4976045;28;7019;-75
2022/04/18 02:46:55;;;;;;;;;;;;;;;9.15;42.00;100887.31;4998671;28;8352;-75
2022/04/18 02:49:21;;;;;;;;;;;;;;;9.12;41.30;100883.69;4997313;28;6981;-75
2022/04/18 02:51:47;;;;;;;;;;;;;;;9.10;42.41;100881.00;4966367;28;6863;-75
2022/04/18 02:54:12;;;;;;;;;;;;;;;9.08;41.35;100882.59;4965744;28;6911;-74
2022/04/18 02:56:38;;;;;;;;;;;;;;;9.08;41.53;100889.38;4983681;28;6948;-74
2022/04/18 02:59:04;;;;;;;;;;;;;;;9.07;41.60;100885.06;4980830;28;6866;-74
2022/04/18 03:01:29;;;;;;;;;;;;;;;9.08;41.67;100876.59;4983598;28;6776;-74
2022/04/18 03:03:55;;;;;;;;;;;;;;;9.10;41.62;100873.34;4982704;28;6942;-74
2022/04/18 03:06:21;;;;;;;;;;;;;;;9.13;41.80;100876.13;4982131;28;6791;-74
2022/04/18 03:08:47;;;;;;;;;;;;;;;9.16;41.78;100872.84;4983178;28;6784;-74
2022/04/18 03:11:12;;;;;;;;;;;;;;;9.20;41.88;100872.25;4980701;28;6931;-74
2022/04/18 03:13:44;;;;;;;;;;;;;;;9.21;41.84;100868.91;4978501;28;6787;-74
2022/04/18 03:16:11;;;;;;;;;;;;;;;9.22;41.85;100868.09;4977637;28;7011;-74
2022/04/18 03:18:37;;;;;;;;;;;;;;;9.24;42.01;100871.63;4977886;28;7000;-74
2022/04/18 03:21:04;;;;;;;;;;;;;;;9.24;41.38;100865.66;4982702;28;6967;-74
2022/04/18 03:23:30;;;;;;;;;;;;;;;9.25;42.08;100867.41;4960827;28;7182;-74
2022/04/18 03:25:57;;;;;;;;;;;;;;;9.23;41.77;100864.75;4984604;28;6820;-74
2022/04/18 03:28:24;;;;;;;;;;;;;;;9.21;41.53;100871.47;4981580;28;6804;-74
2022/04/18 03:30:49;;;;;;;;;;;;;;;9.18;41.90;100868.72;4980361;28;7010;-74
2022/04/18 03:33:15;;;;;;;;;;;;;;;9.16;41.50;100877.94;4986234;28;6776;-74
2022/04/18 03:39:50;;;;;;;;;;;;;;;9.13;41.69;100875.22;4983693;28;7248;-74
2022/04/18 03:41:15;;;;;;;;;;;;;;;9.00;42.21;100877.03;4977128;28;7148;-74
2022/04/18 03:43:41;;;;;;;;;;;;;;;8.97;42.22;100871.69;4980820;28;7193;-74
2022/04/18 03:46:07;;;;;;;;;;;;;;;8.94;42.12;100861.28;4982641;28;6772;-74
2022/04/18 03:48:33;;;;;;;;;;;;;;;8.92;41.91;100867.09;4986711;28;6991;-74
2022/04/18 03:50:59;;;;;;;;;;;;;;;8.90;42.42;100864.47;4985002;28;6804;-74
2022/04/18 03:53:24;;;;;;;;;;;;;;;8.85;42.15;100863.28;4982283;28;6912;-74
2022/04/18 03:55:50;;;;;;;;;;;;;;;8.83;42.43;100865.72;4986899;28;6867;-74
2022/04/18 03:58:16;;;;;;;;;;;;;;;8.80;42.03;100865.53;4981713;28;7213;-74
2022/04/18 04:00:44;;;;;;;;;;;;;;;8.81;42.62;100859.63;4984855;28;7167;-75
2022/04/18 04:03:11;;;;;;;;;;;;;;;8.82;43.01;100860.53;4982831;28;8095;-75
2022/04/18 04:05:38;;;;;;;;;;;;;;;8.82;41.93;100856.28;5003957;28;6883;-75
2022/04/18 04:08:05;;;;;;;;;;;;;;;8.82;42.49;100855.44;4986258;28;6996;-74
2022/04/18 04:10:32;;;;;;;;;;;;;;;8.79;43.02;100853.56;4982353;28;6884;-74
2022/04/18 04:12:58;;;;;;;;;;;;;;;8.75;42.68;100855.03;4982819;28;6816;-74
2022/04/18 04:15:24;;;;;;;;;;;;;;;8.74;42.17;100858.38;4984850;28;6995;-74
2022/04/18 04:17:49;;;;;;;;;;;;;;;8.72;42.55;100851.41;4998965;28;7166;-74
2022/04/18 04:20:15;;;;;;;;;;;;;;;8.74;42.66;100855.81;4985064;28;7165;-74
2022/04/18 04:22:48;;;;;;;;;;;;;;;8.81;42.64;100851.09;4984408;28;7049;-74
2022/04/18 04:25:15;;;;;;;;;;;;;;;8.89;42.29;100852.47;4984261;28;6994;-74
2022/04/18 04:27:41;;;;;;;;;;;;;;;8.97;42.23;100847.81;4978715;28;7125;-74
2022/04/18 04:30:07;;;;;;;;;;;;;;;9.07;42.04;100850.16;4985599;28;6883;-74
2022/04/18 04:32:33;;;;;;;;;;;;;;;9.19;41.69;100854.25;4996998;28;6882;-75
2022/04/18 04:34:59;;;;;;;;;;;;;;;9.29;41.45;100859.13;4984476;28;6941;-76
2022/04/18 04:37:24;;;;;;;;;;;;;;;9.37;41.56;100857.91;4985163;28;6811;-75
2022/04/18 04:39:50;;;;;;;;;;;;;;;9.42;40.71;100859.09;5001912;28;6976;-75
2022/04/18 04:42:17;;;;;;;;;;;;;;;9.48;41.03;100861.13;4983567;28;7100;-75
2022/04/18 04:44:43;;;;;;;;;;;;;;;9.50;41.15;100862.09;5000030;28;6816;-74
2022/04/18 04:47:09;;;;;;;;;;;;;;;9.50;41.35;100864.66;4983427;28;7850;-74
2022/04/18 04:49:35;;;;;;;;;;;;;;;9.49;40.53;100867.13;4985168;28;7027;-74
2022/04/18 04:52:01;;;;;;;;;;;;;;;9.46;40.65;100875.47;4986679;28;6906;-74
2022/04/18 04:54:26;;;;;;;;;;;;;;;9.43;40.50;100867.63;4985940;28;6987;-74
2022/04/18 04:56:52;;;;;;;;;;;;;;;9.39;40.58;100863.13;4985324;28;7381;-74
2022/04/18 04:59:18;;;;;;;;;;;;;;;9.34;41.62;100867.97;4984002;28;6800;-74
2022/04/18 05:01:43;;;;;;;;;;;;;;;9.33;40.71;100870.44;4982270;28;6799;-74
2022/04/18 05:04:09;;;;;;;;;;;;;;;9.28;41.54;100868.50;4999567;28;7882;-74
2022/04/18 05:06:35;;;;;;;;;;;;;;;9.27;41.38;100869.28;4983389;28;6807;-74
2022/04/18 05:09:01;;;;;;;;;;;;;;;9.27;41.73;100865.81;4981552;28;7316;-74
2022/04/18 05:11:26;;;;;;;;;;;;;;;9.28;41.73;100868.50;4981748;28;6950;-74
2022/04/18 05:13:54;;;;;;;;;;;;;;;9.27;42.14;100866.72;4984149;28;6795;-74
2022/04/18 05:16:19;;;;;;;;;;;;;;;9.28;41.91;100871.06;4958974;28;6804;-74
2022/04/18 05:18:45;;;;;;;;;;;;;;;9.29;41.75;100860.03;4999258;28;6871;-74
2022/04/18 05:21:11;;;;;;;;;;;;;;;9.30;42.80;100861.78;4984672;28;6979;-74
2022/04/18 05:23:38;;;;;;;;;;;;;;;9.34;42.79;100867.06;4985300;28;6872;-74
2022/04/18 05:26:04;;;;;;;;;;;;;;;9.39;41.91;100865.69;4985661;28;6835;-74
2022/04/18 05:28:30;;;;;;;;;;;;;;;9.45;42.63;100871.16;4984406;28;7902;-74
2022/04/18 05:30:56;;;;;;;;;;;;;;;9.52;42.25;100870.75;4964782;28;7987;-74
2022/04/18 05:33:23;;;;;;;;;;;;;;;9.62;41.89;100868.72;4981630;28;7915;-74
2022/04/18 05:35:50;;;;;;;;;;;;;;;9.72;42.56;100868.47;4985483;28;7891;-74
2022/04/18 05:38:17;;;;;;;;;;;;;;;9.82;42.62;100868.22;4984905;28;6827;-74
2022/04/18 05:40:43;;;;;;;;;;;;;;;9.94;41.76;100872.28;4986286;28;7129;-74
2022/04/18 05:43:09;;;;;;;;;;;;;;;10.05;42.10;100871.25;4986884;28;6792;-76
2022/04/18 05:45:37;;;;;;;;;;;;;;;10.15;41.93;100870.09;4969939;28;7310;-75
2022/04/18 05:48:02;;;;;;;;;;;;;;;10.27;41.25;100867.34;4987399;28;6842;-75
2022/04/18 05:50:28;;;;;;;;;;;;;;;10.38;41.76;100870.50;4982699;28;6796;-75
2022/04/18 05:52:54;;;;;;;;;;;;;;;10.49;41.37;100861.78;4986228;28;6822;-75
2022/04/18 05:55:21;;;;;;;;;;;;;;;10.61;41.52;100863.28;4973868;28;7253;-75
2022/04/18 05:57:48;;;;;;;;;;;;;;;10.72;41.57;100863.84;4982700;28;6815;-74
2022/04/18 06:00:15;;;;;;;;;;;;;;;10.83;41.55;100866.19;4986864;28;6816;-74
2022/04/18 06:02:41;;;;;;;;;;;;;;;10.96;40.71;100878.00;4981062;28;6892;-74
2022/04/18 06:05:07;;;;;;;;;;;;;;;11.09;40.71;100876.09;4986256;28;6807;-74
2022/04/18 06:07:34;;;;;;;;;;;;;;;11.20;41.07;100880.13;4984480;28;7185;-74
2022/04/18 06:10:02;;;;;;;;;;;;;;;11.31;41.22;100879.81;4984037;28;6892;-74
2022/04/18 06:12:28;;;;;;;;;;;;;;;11.38;40.73;100877.66;4964104;28;7165;-74
2022/04/18 06:14:54;;;;;;;;;;;;;;;11.45;41.07;100886.53;4985867;28;6803;-74
2022/04/18 06:17:19;;;;;;;;;;;;;;;11.51;40.93;100884.31;4965612;28;7707;-74
2022/04/18 06:19:45;;;;;;;;;;;;;;;11.58;40.73;100888.06;4985054;28;6803;-74
2022/04/18 06:22:11;;;;;;;;;;;;;;;11.66;40.68;100885.88;4982554;28;6784;-74
2022/04/18 06:24:37;;;;;;;;;;;;;;;11.74;40.97;100887.16;4985615;28;6954;-74
2022/04/18 06:27:03;;;;;;;;;;;;;;;11.84;40.65;100887.63;4983491;28;6795;-74
2022/04/18 06:29:29;;;;;;;;;;;;;;;11.92;40.15;100886.34;4985847;28;7232;-74
2022/04/18 06:31:55;;;;;;;;;;;;;;;12.01;40.96;100886.78;4997259;28;8063;-74
2022/04/18 06:34:21;;;;;;;;;;;;;;;12.10;40.28;100890.66;4986399;28;6898;-74
2022/04/18 06:36:47;;;;;;;;;;;;;;;12.21;40.32;100894.63;4981118;28;6803;-74
2022/04/18 06:39:12;;;;;;;;;;;;;;;12.31;39.47;100898.53;4982029;28;7231;-74
2022/04/18 06:41:39;;;;;;;;;;;;;;;12.41;39.59;100894.72;4980469;28;6792;-74
2022/04/18 06:44:05;;;;;;;;;;;;;;;12.51;39.47;100902.09;4983404;28;7219;-74
2022/04/18 06:46:31;;;;;;;;;;;;;;;12.62;39.56;100898.31;4983857;28;7896;-74
2022/04/18 06:48:56;;;;;;;;;;;;;;;12.73;39.36;100900.53;4984186;28;6858;-74
2022/04/18 06:51:22;;;;;;;;;;;;;;;12.84;39.14;100898.47;4982824;28;6815;-74
2022/04/18 06:53:48;;;;;;;;;;;;;;;12.97;39.55;100908.50;4981566;28;7324;-74
2022/04/18 06:58:57;;;;;;;;;;;;;;;13.17;39.11;100898.25;4983310;28;6900;-74
2022/04/18 07:01:23;;;;;;;;;;;;;;;13.29;39.26;100898.81;4982779;28;6962;-75
2022/04/18 07:03:49;;;;;;;;;;;;;;;13.42;38.19;100900.25;4985063;28;7176;-74
2022/04/18 07:06:14;;;;;;;;;;;;;;;13.55;38.62;100895.66;4982235;28;7859;-74
2022/04/18 07:08:40;;;;;;;;;;;;;;;13.69;38.58;100899.69;4965942;28;7243;-74
2022/04/18 07:11:06;;;;;;;;;;;;;;;13.82;37.85;100895.97;4979904;28;6784;-74
2022/04/18 07:13:31;;;;;;;;;;;;;;;13.97;38.50;100895.72;4984728;28;7812;-74
2022/04/18 07:15:57;;;;;;;;;;;;;;;14.10;37.42;100893.66;4984760;28;6788;-74
2022/04/18 07:18:23;;;;;;;;;;;;;;;14.24;38.14;100896.81;4983927;28;7007;-74
2022/04/18 07:20:48;;;;;;;;;;;;;;;14.36;37.50;100891.28;4984929;28;6856;-75
2022/04/18 07:23:14;;;;;;;;;;;;;;;14.50;37.29;100884.09;4984535;28;7229;-75
2022/04/18 07:25:40;;;;;;;;;;;;;;;14.63;36.77;100877.72;4993863;28;6807;-74
2022/04/18 07:28:06;;;;;;;;;;;;;;;14.76;36.74;100884.28;4996238;28;6878;-74
2022/04/18 07:30:32;;;;;;;;;;;;;;;14.89;37.43;100890.78;4997781;28;6816;-74
2022/04/18 07:32:58;;;;;;;;;;;;;;;15.01;36.62;100886.06;4982222;28;6775;-74
2022/04/18 07:35:24;;;;;;;;;;;;;;;15.12;36.70;100889.94;4963458;28;6804;-74
2022/04/18 07:40:34;;;;;;;;;;;;;;;15.34;35.96;100882.09;4983684;28;6841;-74
2022/04/18 07:43:00;;;;;;;;;;;;;;;15.45;35.59;100878.19;4978759;28;6890;-74
2022/04/18 07:45:26;;;;;;;;;;;;;;;15.58;35.53;100876.03;4997460;28;6783;-74
2022/04/18 07:47:52;;;;;;;;;;;;;;;15.68;36.20;100876.44;4984428;28;6796;-74
2022/04/18 07:50:18;;;;;;;;;;;;;;;15.80;35.55;100875.09;4998474;28;6796;-74
2022/04/18 07:52:44;;;;;;;;;;;;;;;15.93;36.13;100872.13;4984728;28;7079;-74
2022/04/18 07:55:10;;;;;;;;;;;;;;;16.06;35.72;100873.41;4966790;28;7463;-74
2022/04/18 07:57:37;;;;;;;;;;;;;;;16.14;35.99;100863.31;4984257;28;6792;-74
2022/04/18 08:00:07;;;;;;;;;;;;;;;16.25;36.02;100863.66;4978442;28;8087;-74
2022/04/18 08:02:34;;;;;;;;;;;;;;;16.32;35.78;100860.44;4979611;28;6859;-74
2022/04/18 08:05:00;;;;;;;;;;;;;;;16.42;35.72;100866.81;4980712;28;6981;-74
2022/04/18 08:07:26;;;;;;;;;;;;;;;16.54;35.49;100862.84;4968192;28;6804;-74
2022/04/18 08:09:51;;;;;;;;;;;;;;;16.64;35.14;100868.31;4984108;28;7987;-74
2022/04/18 08:12:17;;;;;;;;;;;;;;;16.76;35.01;100869.56;4983150;28;6954;-74
2022/04/18 08:14:43;;;;;;;;;;;;;;;16.85;34.59;100856.88;4984262;28;6780;-74
2022/04/18 08:17:09;;;;;;;;;;;;;;;16.95;34.46;100860.59;4980002;28;7859;-74
2022/04/18 08:19:35;;;;;;;;;;;;;;;17.01;34.17;100863.41;4983295;28;7094;-74
2022/04/18 08:22:02;;;;;;;;;;;;;;;17.07;34.17;100862.72;4968209;28;7289;-74
2022/04/18 08:24:28;;;;;;;;;;;;;;;17.15;33.74;100860.31;4951096;28;7304;-74
2022/04/18 08:26:55;;;;;;;;;;;;;;;17.24;33.47;100865.78;4984635;28;7230;-74
2022/04/18 08:29:22;;;;;;;;;;;;;;;17.32;33.40;100859.09;4986017;28;7169;-75
2022/04/18 08:31:48;;;;;;;;;;;;;;;17.40;33.24;100856.69;4984793;28;6887;-75
2022/04/18 08:34:16;;;;;;;;;;;;;;;17.48;33.27;100860.38;4983553;28;6807;-75
2022/04/18 08:36:42;;;;;;;;;;;;;;;17.59;33.09;100858.09;4989859;28;7954;-75
2022/04/18 08:39:08;;;;;;;;;;;;;;;17.68;33.43;100856.59;4988303;28;6783;-75
2022/04/18 08:41:38;;;;;;;;;;;;;;;17.75;33.31;100859.34;5001553;28;6978;-74
2022/04/18 08:44:05;;;;;;;;;;;;;;;17.83;33.46;100859.53;5003055;28;6800;-74
2022/04/18 08:46:31;;;;;;;;;;;;;;;17.91;33.50;100858.03;4985840;28;7023;-74
2022/04/18 08:54:28;;;;;;;;;;;;;;;18.23;32.69;100843.25;4989063;28;7670;-74
2022/04/18 08:56:56;;;;;;;;;;;;;;;18.29;32.32;100844.25;4986775;28;6808;-74
2022/04/18 08:59:22;;;;;;;;;;;;;;;18.41;32.07;100845.41;4986944;28;7193;-74
2022/04/18 09:01:50;;;;;;;;;;;;;;;18.54;31.56;100843.94;4965449;28;8021;-75
2022/04/18 09:04:20;;;;;;;;;;;;;;;18.67;31.42;100843.38;4986436;28;6804;-75
2022/04/18 09:06:46;;;;;;;;;;;;;;;18.81;31.29;100841.06;4985791;28;7354;-75
2022/04/18 09:09:12;;;;;;;;;;;;;;;18.94;31.30;100844.81;5000236;28;7168;-74
2022/04/18 09:11:38;;;;;;;;;;;;;;;19.09;31.16;100836.50;4983660;28;7029;-75
2022/04/18 09:14:15;;;;;;;;;;;;;;;19.24;30.61;100833.31;4986079;28;6791;-75
2022/04/18 09:16:42;;;;;;;;;;;;;;;19.39;30.73;100834.44;5004041;28;6903;-75
2022/04/18 09:19:16;;;;;;;;;;;;;;;19.56;30.89;100827.81;5000592;28;6891;-75
2022/04/18 09:21:58;;;;;;;;;;;;;;;19.76;30.07;100831.63;4986522;28;7334;-75
2022/04/18 09:24:32;;;;;;;;;;;;;;;20.00;30.43;100828.59;4981840;28;6811;-75
2022/04/18 09:27:06;;;;;;;;;;;;;;;20.38;29.75;100828.28;4979179;28;6835;-75
2022/04/18 09:29:40;;;;;;;;;;;;;;;20.94;28.95;100820.34;4983060;28;7001;-75
2022/04/18 09:32:10;;;;;;;;;;;;;;;21.70;28.41;100817.69;4985647;28;8063;-75
2022/04/18 09:34:38;;;;;;;;;;;;;;;22.64;28.12;100809.59;4984640;28;7077;-74
2022/04/18 09:37:19;;;;;;;;;;;;;;;23.76;27.28;100804.63;4985716;28;6815;-75
2022/04/18 09:39:52;;;;;;;;;;;;;;;24.80;25.67;100796.56;4960001;28;8081;-75
2022/04/18 09:42:22;;;;;;;;;;;;;;;25.62;25.78;100789.06;4975008;28;6808;-75
2022/04/18 09:44:49;;;;;;;;;;;;;;;26.25;24.74;100784.13;4966842;28;6828;-75
2022/04/18 09:47:23;;;;;;;;;;;;;;;26.89;24.32;100786.88;4977029;28;7015;-75
2022/04/18 09:49:49;;;;;;;;;;;;;;;27.43;23.96;100782.56;4999652;28;6964;-75
2022/04/18 09:52:18;;;;;;;;;;;;;;;27.99;23.61;100778.97;4985678;28;7895;-75
2022/04/18 09:54:56;;;;;;;;;;;;;;;28.63;23.06;100780.38;4985113;28;7007;-75
2022/04/18 09:57:27;;;;;;;;;;;;;;;29.21;22.58;100777.34;4980139;28;6897;-75
2022/04/18 09:59:55;;;;;;;;;;;;;;;29.76;21.82;100761.06;5001255;28;6816;-75
2022/04/18 10:02:24;;;;;;;;;;;;;;;30.15;21.65;100757.41;4976489;28;6812;-75
2022/04/18 10:04:52;;;;;;;;;;;;;;;30.31;20.85;100758.69;4982828;28;6875;-75
2022/04/18 10:07:19;;;;;;;;;;;;;;;30.53;20.75;100749.25;4983769;28;7382;-73
2022/04/18 10:09:45;;;;;;;;;;;;;;;30.68;19.87;100758.53;4957297;28;6880;-73
2022/04/18 10:12:13;;;;;;;;;;;;;;;30.71;19.48;100753.13;4981993;28;7868;-73
2022/04/18 10:14:41;;;;;;;;;;;;;;;30.70;19.21;100740.81;4962586;28;7190;-73
2022/04/18 10:17:09;;;;;;;;;;;;;;;30.85;19.88;100745.66;4983311;28;6804;-72
2022/04/18 10:19:38;;;;;;;;;;;;;;;31.08;19.12;100743.19;4983376;28;6840;-72
2022/04/18 10:22:57;;;;;;;;;;;;;;;31.29;19.25;100742.50;4983407;28;6815;-73
2022/04/18 10:25:55;;;;;;;;;;;;;;;31.42;18.85;100739.44;4984634;28;7054;-73
2022/04/18 10:28:26;;;;;;;;;;;;;;;31.59;18.76;100733.56;4984487;28;6953;-73
2022/04/18 10:31:00;;;;;;;;;;;;;;;31.62;18.59;100730.81;4982738;28;6812;-73
2022/04/18 10:33:27;;;;;;;;;;;;;;;31.50;18.86;100728.59;4985104;28;6808;-73
2022/04/18 10:36:02;;;;;;;;;;;;;;;31.48;18.34;100733.06;4980499;28;6816;-72
2022/04/18 10:38:44;;;;;;;;;;;;;;;31.61;18.27;100723.78;4981221;28;6820;-72
2022/04/18 10:41:31;;;;;;;;;;;;;;;31.66;18.36;100711.22;4982485;28;7065;-73
2022/04/18 10:44:09;;;;;;;;;;;;;;;31.81;17.93;100719.59;4997966;28;7271;-72
2022/04/18 10:46:55;;;;;;;;;;;;;;;32.03;17.27;100718.78;4983533;28;6808;-73
2022/04/18 10:49:31;;;;;;;;;;;;;;;32.23;16.77;100718.91;4967647;28;6816;-73
2022/04/18 10:52:08;;;;;;;;;;;;;;;32.40;16.63;100714.78;4969320;28;6981;-73
2022/04/18 10:54:35;;;;;;;;;;;;;;;32.63;16.64;100707.69;4979758;28;6812;-73
2022/04/18 10:57:11;;;;;;;;;;;;;;;32.95;15.93;100708.22;4979727;28;6832;-73
2022/04/18 10:59:45;;;;;;;;;;;;;;;33.20;16.05;100699.22;4983441;28;7109;-73
2022/04/18 11:02:42;;;;;;;;;;;;;;;33.36;15.56;100696.75;4961181;28;7099;-73
2022/04/18 11:05:08;;;;;;;;;;;;;;;33.30;15.29;100700.53;4983992;28;6983;-73
2022/04/18 11:07:41;;;;;;;;;;;;;;;33.22;15.42;100702.66;4977468;28;6784;-73
2022/04/18 11:10:23;;;;;;;;;;;;;;;33.01;15.57;100702.63;4983545;28;7012;-73
2022/04/18 11:12:50;;;;;;;;;;;;;;;32.83;15.67;100699.78;4981686;28;7382;-73
2022/04/18 11:15:17;;;;;;;;;;;;;;;32.86;15.58;100698.81;4982626;28;7151;-73
2022/04/18 11:17:43;;;;;;;;;;;;;;;33.13;15.90;100695.09;4981702;28;7026;-73
2022/04/18 11:20:28;;;;;;;;;;;;;;;33.39;15.54;100689.53;4983987;28;6899;-73
2022/04/18 11:23:19;;;;;;;;;;;;;;;33.45;15.35;100691.03;4981023;28;7343;-72
2022/04/18 11:26:03;;;;;;;;;;;;;;;33.49;14.89;100689.16;4998348;28;6887;-72
2022/04/18 11:28:39;;;;;;;;;;;;;;;33.28;14.91;100683.81;4998825;28;6808;-74
2022/04/18 11:31:21;;;;;;;;;;;;;;;33.08;15.13;100688.19;4982319;28;8065;-72
2022/04/18 11:33:47;;;;;;;;;;;;;;;32.90;15.07;100689.81;4981923;28;6820;-72
2022/04/18 11:36:14;;;;;;;;;;;;;;;32.75;14.93;100678.03;4981823;28;7235;-73
2022/04/18 11:38:41;;;;;;;;;;;;;;;32.64;14.98;100672.28;4982766;28;6808;-73
2022/04/18 11:41:12;;;;;;;;;;;;;;;32.68;15.34;100673.91;4997670;28;6803;-73
2022/04/18 11:43:38;;;;;;;;;;;;;;;32.78;15.25;100675.25;4981141;28;7245;-73
2022/04/18 11:46:07;;;;;;;;;;;;;;;32.89;15.23;100661.53;4982604;28;7023;-73
2022/04/18 11:48:34;;;;;;;;;;;;;;;33.07;15.23;100665.22;4960324;28;7278;-73
2022/04/18 11:51:00;;;;;;;;;;;;;;;33.10;15.18;100659.78;4983392;28;6807;-73
2022/04/18 11:53:34;;;;;;;;;;;;;;;32.98;14.88;100655.00;4981689;28;6792;-73
2022/04/18 11:56:07;;;;;;;;;;;;;;;32.89;14.84;100660.66;4967676;28;6968;-73
2022/04/18 11:58:40;;;;;;;;;;;;;;;32.89;15.10;100666.84;4982659;28;7466;-73
2022/04/18 12:06:45;;;;;;;;;;;;;;;33.01;14.89;100651.38;4977849;28;7173;-73
2022/04/18 12:09:13;;;;;;;;;;;;;;;33.09;14.48;100638.63;4960647;28;7009;-73
2022/04/18 12:11:39;;;;;;;;;;;;;;;33.11;14.12;100642.06;5001112;28;6808;-73
2022/04/18 12:14:05;;;;;;;;;;;;;;;33.14;14.07;100635.78;4989650;28;6799;-73
2022/04/18 12:16:36;;;;;;;;;;;;;;;33.14;14.62;100627.81;4984366;28;8650;-73
2022/04/18 12:19:03;;;;;;;;;;;;;;;33.13;14.34;100631.38;5000711;28;6803;-73
2022/04/18 12:21:29;;;;;;;;;;;;;;;33.09;14.69;100625.34;4967083;28;6878;-73
2022/04/18 12:23:58;;;;;;;;;;;;;;;32.94;14.25;100626.88;4986944;28;6820;-73
2022/04/18 12:26:29;;;;;;;;;;;;;;;32.78;14.34;100621.31;4980176;28;8315;-73
2022/04/18 12:29:06;;;;;;;;;;;;;;;32.72;14.80;100630.38;5002743;28;6995;-73
2022/04/18 12:31:32;;;;;;;;;;;;;;;32.70;14.24;100624.28;4982519;28;6815;-73
2022/04/18 12:33:58;;;;;;;;;;;;;;;32.68;14.45;100604.91;4986855;28;7121;-73
2022/04/18 12:36:31;;;;;;;;;;;;;;;32.63;13.93;100614.84;4984804;28;7431;-73
2022/04/18 12:38:57;;;;;;;;;;;;;;;32.50;14.38;100611.81;4985635;28;6811;-73
2022/04/18 12:41:30;;;;;;;;;;;;;;;32.58;14.47;100599.13;4968354;28;7259;-73
2022/04/18 12:43:57;;;;;;;;;;;;;;;32.77;14.39;100601.88;4972065;28;7233;-72
2022/04/18 12:46:25;;;;;;;;;;;;;;;32.89;14.29;100591.66;4987784;28;7025;-72
2022/04/18 12:48:52;;;;;;;;;;;;;;;32.82;14.07;100601.69;4988570;28;7418;-74
2022/04/18 12:51:31;;;;;;;;;;;;;;;32.79;14.02;100593.88;4986419;28;7215;-73
2022/04/18 12:53:57;;;;;;;;;;;;;;;32.78;14.13;100592.13;4987528;28;6812;-73
2022/04/18 12:56:26;;;;;;;;;;;;;;;32.66;14.07;100580.25;4985726;28;6807;-73
2022/04/18 12:58:54;;;;;;;;;;;;;;;32.48;14.25;100582.75;4985013;28;7034;-73
2022/04/18 13:01:31;;;;;;;;;;;;;;;32.40;14.73;100583.06;4984248;28;7241;-73
2022/04/18 13:03:57;;;;;;;;;;;;;;;32.35;14.36;100585.00;4986761;28;6812;-73
2022/04/18 13:06:31;;;;;;;;;;;;;;;32.24;14.41;100580.13;4986486;28;7063;-73
2022/04/18 13:09:09;;;;;;;;;;;;;;;32.22;14.67;100581.13;5002506;28;7108;-73
2022/04/18 13:11:41;;;;;;;;;;;;;;;31.95;14.69;100576.81;4985525;28;8726;-73
2022/04/18 13:14:10;;;;;;;;;;;;;;;31.81;14.87;100580.00;4962965;28;6812;-73
2022/04/18 13:16:39;;;;;;;;;;;;;;;31.83;15.07;100575.53;4982698;28;6804;-73
2022/04/18 13:19:12;;;;;;;;;;;;;;;31.97;15.00;100571.47;4949576;28;7094;-73
2022/04/18 13:21:40;;;;;;;;;;;;;;;32.06;14.98;100562.28;4965791;28;6819;-73
2022/04/18 13:24:08;;;;;;;;;;;;;;;31.81;15.26;100565.91;4986473;28;7163;-73